createdAt,value
2023-05-09T00:01:54.141Z,8.03
2023-05-09T00:04:26.729Z,8.05
2023-05-09T00:06:58.402Z,8.09
2023-05-09T00:09:30.195Z,8.12
2023-05-09T00:12:02.679Z,8.12
2023-05-09T00:14:34.234Z,8.12
2023-05-09T00:17:06.103Z,8.13
2023-05-09T00:19:39.273Z,8.14
2023-05-09T00:22:13.282Z,8.14
2023-05-09T00:24:45.062Z,8.16
2023-05-09T00:27:16.754Z,8.17
2023-05-09T00:29:48.425Z,8.18
2023-05-09T00:32:20.216Z,8.20
2023-05-09T00:34:51.964Z,8.21
2023-05-09T00:37:24.123Z,8.22
2023-05-09T00:39:55.710Z,8.24
2023-05-09T00:42:27.546Z,8.25
2023-05-09T00:44:59.137Z,8.27
2023-05-09T00:47:32.098Z,8.28
2023-05-09T00:50:03.875Z,8.30
2023-05-09T00:52:35.718Z,8.30
2023-05-09T00:55:08.507Z,8.34
2023-05-09T00:57:41.599Z,8.36
2023-05-09T01:00:14.224Z,8.40
2023-05-09T01:02:48.312Z,8.40
2023-05-09T01:05:20.792Z,8.41
2023-05-09T01:08:14.146Z,8.41
2023-05-09T01:10:58.024Z,8.41
2023-05-09T01:13:38.904Z,8.42
2023-05-09T01:16:15.596Z,8.46
2023-05-09T01:19:02.315Z,8.48
2023-05-09T01:21:34.328Z,8.48
2023-05-09T01:24:44.750Z,8.49
2023-05-09T01:27:23.436Z,8.47
2023-05-09T01:29:59.350Z,8.46
2023-05-09T01:32:41.274Z,8.45
2023-05-09T01:35:14.839Z,8.46
2023-05-09T01:37:46.724Z,8.45
2023-05-09T01:40:20.308Z,8.45
2023-05-09T01:43:06.689Z,8.47
2023-05-09T01:45:41.569Z,8.49
2023-05-09T01:48:13.305Z,8.49
2023-05-09T01:50:45.648Z,8.49
2023-05-09T01:53:17.610Z,8.50
2023-05-09T01:55:49.165Z,8.49
2023-05-09T01:58:20.976Z,8.49
2023-05-09T02:00:52.827Z,8.49
2023-05-09T02:03:24.773Z,8.49
2023-05-09T02:05:56.666Z,8.49
2023-05-09T02:08:28.513Z,8.47
2023-05-09T02:11:00.385Z,8.47
2023-05-09T02:13:32.565Z,8.51
2023-05-09T02:16:04.555Z,8.50
2023-05-09T02:18:36.462Z,8.50
2023-05-09T02:21:08.613Z,8.46
2023-05-09T02:23:40.608Z,8.45
2023-05-09T02:26:12.991Z,8.43
2023-05-09T02:28:44.901Z,8.43
2023-05-09T02:31:16.851Z,8.45
2023-05-09T02:33:48.567Z,8.45
2023-05-09T02:36:20.066Z,8.45
2023-05-09T02:38:51.637Z,8.46
2023-05-09T02:41:23.263Z,8.47
2023-05-09T02:43:54.940Z,8.48
2023-05-09T02:46:27.102Z,8.50
2023-05-09T02:48:58.972Z,8.50
2023-05-09T02:51:32.359Z,8.50
2023-05-09T02:54:04.006Z,8.50
2023-05-09T02:56:36.395Z,8.51
2023-05-09T02:59:08.318Z,8.51
2023-05-09T03:01:40.294Z,8.51
2023-05-09T03:04:12.963Z,8.52
2023-05-09T03:06:45.209Z,8.52
2023-05-09T03:09:16.994Z,8.53
2023-05-09T03:11:48.967Z,8.58
2023-05-09T03:14:20.750Z,8.61
2023-05-09T03:16:52.371Z,8.63
2023-05-09T03:19:25.670Z,8.63
2023-05-09T03:21:57.397Z,8.63
2023-05-09T03:24:30.000Z,8.66
2023-05-09T03:27:01.557Z,8.69
2023-05-09T03:29:34.133Z,8.71
2023-05-09T03:32:06.241Z,8.74
2023-05-09T03:34:38.041Z,8.75
2023-05-09T03:37:09.938Z,8.74
2023-05-09T03:39:43.704Z,8.74
2023-05-09T03:42:15.823Z,8.78
2023-05-09T03:44:49.024Z,8.83
2023-05-09T03:47:20.646Z,8.88
2023-05-09T03:49:53.697Z,8.92
2023-05-09T03:52:26.377Z,8.96
2023-05-09T03:55:04.309Z,8.97
2023-05-09T03:57:37.699Z,9.00
2023-05-09T04:00:10.446Z,9.03
2023-05-09T04:02:53.212Z,9.03
2023-05-09T04:05:27.517Z,9.07
2023-05-09T04:07:59.504Z,9.12
2023-05-09T04:10:32.675Z,9.17
2023-05-09T04:13:05.317Z,9.20
2023-05-09T04:15:37.066Z,9.26
2023-05-09T04:18:10.912Z,9.31
2023-05-09T04:20:42.488Z,9.33
2023-05-09T04:23:14.950Z,9.36
2023-05-09T04:25:47.078Z,9.43
2023-05-09T04:28:19.268Z,9.47
2023-05-09T04:30:51.619Z,9.53
2023-05-09T04:33:24.427Z,9.58
2023-05-09T04:35:57.892Z,9.64
2023-05-09T04:38:30.090Z,9.70
2023-05-09T04:41:02.239Z,9.73
2023-05-09T04:43:34.239Z,9.78
2023-05-09T04:46:06.095Z,9.83
2023-05-09T04:48:38.038Z,9.88
2023-05-09T04:51:09.766Z,9.93
2023-05-09T04:53:41.400Z,9.96
2023-05-09T04:56:13.380Z,10.09
2023-05-09T04:58:45.501Z,10.20
2023-05-09T05:01:18.330Z,10.29
2023-05-09T05:03:50.412Z,10.40
2023-05-09T05:06:22.105Z,10.51
2023-05-09T05:08:54.408Z,10.61
2023-05-09T05:11:26.706Z,10.70
2023-05-09T05:13:58.702Z,10.80
2023-05-09T05:16:30.553Z,10.92
2023-05-09T05:19:02.577Z,11.02
2023-05-09T05:21:34.768Z,11.13
2023-05-09T05:24:06.785Z,11.25
2023-05-09T05:26:38.890Z,11.37
2023-05-09T05:29:10.911Z,11.47
2023-05-09T05:31:42.684Z,11.52
2023-05-09T05:34:16.050Z,11.58
2023-05-09T05:36:48.216Z,11.69
2023-05-09T05:39:19.951Z,11.80
2023-05-09T05:41:52.848Z,11.95
2023-05-09T05:44:24.727Z,12.08
2023-05-09T05:46:56.733Z,12.19
2023-05-09T05:49:30.258Z,12.35
2023-05-09T05:52:02.392Z,12.49
2023-05-09T05:54:34.485Z,12.58
2023-05-09T05:57:08.191Z,12.69
2023-05-09T05:59:40.112Z,12.81
2023-05-09T06:02:12.276Z,12.88
2023-05-09T06:04:44.769Z,12.97
2023-05-09T06:07:16.747Z,13.01
2023-05-09T06:09:49.920Z,13.03
2023-05-09T06:12:21.788Z,13.09
2023-05-09T06:14:53.698Z,13.16
2023-05-09T06:17:26.242Z,13.24
2023-05-09T06:19:59.511Z,13.33
2023-05-09T06:22:31.185Z,13.55
2023-05-09T06:25:02.772Z,13.75
2023-05-09T06:27:34.780Z,13.95
2023-05-09T06:30:26.161Z,14.14
2023-05-09T06:32:52.036Z,14.25
2023-05-09T06:35:23.806Z,14.34
2023-05-09T06:37:55.569Z,14.42
2023-05-09T06:40:27.413Z,14.69
2023-05-09T06:42:58.982Z,14.90
2023-05-09T06:45:31.199Z,15.11
2023-05-09T06:48:02.832Z,15.36
2023-05-09T06:50:34.980Z,15.40
2023-05-09T06:53:07.047Z,15.39
2023-05-09T06:55:39.218Z,15.45
2023-05-09T06:58:11.408Z,15.49
2023-05-09T07:00:43.625Z,15.60
2023-05-09T07:03:16.159Z,15.70
2023-05-09T07:05:47.804Z,15.81
2023-05-09T07:08:19.840Z,16.04
2023-05-09T07:10:51.578Z,16.23
2023-05-09T07:13:23.531Z,16.26
2023-05-09T07:15:56.301Z,16.42
2023-05-09T07:18:29.755Z,16.78
2023-05-09T07:21:01.694Z,16.95
2023-05-09T07:23:34.099Z,16.90
2023-05-09T07:26:06.039Z,16.97
2023-05-09T07:28:37.621Z,16.90
2023-05-09T07:31:09.456Z,16.70
2023-05-09T07:33:41.377Z,16.67
2023-05-09T07:36:14.931Z,16.66
2023-05-09T07:38:48.166Z,16.75
2023-05-09T07:41:20.169Z,16.90
2023-05-09T07:43:51.877Z,16.85
2023-05-09T07:46:24.536Z,16.90
2023-05-09T07:48:56.838Z,16.64
2023-05-09T07:51:28.552Z,16.30
2023-05-09T07:54:00.526Z,16.12
2023-05-09T07:56:32.803Z,16.34
2023-05-09T07:59:07.529Z,16.23
2023-05-09T08:01:39.528Z,16.01
2023-05-09T08:04:11.458Z,15.85
2023-05-09T08:06:43.928Z,15.77
2023-05-09T08:09:16.699Z,15.86
2023-05-09T08:11:48.814Z,15.85
2023-05-09T08:14:20.852Z,15.85
2023-05-09T08:16:52.589Z,15.85
2023-05-09T08:19:26.433Z,15.91
2023-05-09T08:21:58.166Z,16.06
2023-05-09T08:24:29.804Z,16.12
2023-05-09T08:27:01.576Z,16.25
2023-05-09T08:29:33.715Z,16.61
2023-05-09T08:32:06.147Z,17.16
2023-05-09T08:34:38.337Z,17.53
2023-05-09T08:37:12.214Z,17.59
2023-05-09T08:39:44.368Z,17.62
2023-05-09T08:42:18.338Z,17.74
2023-05-09T08:44:50.146Z,18.08
2023-05-09T08:47:21.900Z,18.57
2023-05-09T08:49:54.911Z,18.92
2023-05-09T08:52:26.919Z,19.17
2023-05-09T08:54:58.801Z,19.38
2023-05-09T08:57:30.982Z,19.52
2023-05-09T09:00:04.957Z,19.78
2023-05-09T09:02:37.379Z,19.89
2023-05-09T09:05:16.385Z,20.01
2023-05-09T09:07:43.636Z,20.03
2023-05-09T09:10:16.578Z,20.12
2023-05-09T09:12:50.391Z,20.31
2023-05-09T09:15:22.969Z,20.55
2023-05-09T09:17:56.796Z,20.30
2023-05-09T09:20:29.207Z,19.85
2023-05-09T09:23:02.118Z,19.35
2023-05-09T09:25:34.155Z,18.89
2023-05-09T09:28:06.570Z,18.53
2023-05-09T09:30:48.485Z,18.25
2023-05-09T09:33:21.837Z,18.03
2023-05-09T09:35:54.858Z,18.07
2023-05-09T09:38:27.034Z,18.05
2023-05-09T09:40:59.600Z,18.17
2023-05-09T09:43:32.386Z,18.11
2023-05-09T09:46:04.673Z,18.03
2023-05-09T09:48:38.587Z,17.92
2023-05-09T09:51:12.777Z,17.84
2023-05-09T09:53:56.335Z,17.91
2023-05-09T09:56:31.447Z,18.00
2023-05-09T09:59:20.514Z,18.06
2023-05-09T10:02:09.314Z,18.10
2023-05-09T10:04:43.522Z,18.07
2023-05-09T10:07:16.244Z,18.06
2023-05-09T10:09:49.572Z,17.90
2023-05-09T10:12:23.133Z,17.68
2023-05-09T10:14:54.959Z,17.45
2023-05-09T10:17:27.745Z,17.53
2023-05-09T10:19:59.880Z,17.72
2023-05-09T10:22:35.694Z,17.85
2023-05-09T10:25:11.051Z,17.86
2023-05-09T10:27:46.167Z,17.93
2023-05-09T10:30:22.725Z,17.97
2023-05-09T10:32:59.773Z,18.15
2023-05-09T10:35:34.065Z,18.21
2023-05-09T10:38:06.151Z,18.39
2023-05-09T10:40:37.707Z,18.49
2023-05-09T10:43:09.273Z,18.48
2023-05-09T10:45:41.131Z,18.43
2023-05-09T10:48:12.820Z,18.39
2023-05-09T10:50:45.175Z,18.42
2023-05-09T10:53:21.887Z,18.44
2023-05-09T10:56:00.279Z,18.33
2023-05-09T10:58:40.972Z,18.26
2023-05-09T11:01:12.802Z,18.08
2023-05-09T11:03:57.039Z,17.84
2023-05-09T11:06:45.117Z,17.69
2023-05-09T11:09:37.509Z,17.64
2023-05-09T11:12:14.646Z,17.58
2023-05-09T11:14:48.905Z,17.47
2023-05-09T11:17:28.806Z,17.31
2023-05-09T11:20:03.432Z,17.35
2023-05-09T11:22:43.341Z,17.39
2023-05-09T11:25:17.250Z,17.46
2023-05-09T11:27:50.928Z,17.54
2023-05-09T11:30:23.414Z,17.57
2023-05-09T11:32:59.137Z,17.59
2023-05-09T11:35:31.600Z,17.58
2023-05-09T11:38:07.015Z,17.50
2023-05-09T11:40:39.322Z,17.45
2023-05-09T11:43:11.286Z,17.46
2023-05-09T11:45:43.612Z,17.49
2023-05-09T11:48:15.552Z,17.52
2023-05-09T11:50:49.815Z,17.45
2023-05-09T11:53:21.683Z,17.26
2023-05-09T11:55:53.568Z,17.09
2023-05-09T11:58:25.174Z,16.89
2023-05-09T12:00:57.625Z,16.77
2023-05-09T12:03:29.765Z,16.68
2023-05-09T12:06:01.906Z,16.68
2023-05-09T12:08:33.943Z,16.66
2023-05-09T12:11:12.324Z,16.71
2023-05-09T12:13:51.933Z,16.74
2023-05-09T12:16:23.693Z,16.77
2023-05-09T12:18:55.516Z,16.82
2023-05-09T12:21:28.503Z,16.82
2023-05-09T12:24:03.058Z,16.77
2023-05-09T12:29:18.858Z,16.84
2023-05-09T12:31:50.938Z,16.88
2023-05-09T12:34:23.091Z,16.92
2023-05-09T12:36:55.032Z,16.97
2023-05-09T12:39:27.088Z,16.99
2023-05-09T12:42:01.990Z,16.95
2023-05-09T12:44:34.008Z,16.89
2023-05-09T12:47:05.832Z,16.77
2023-05-09T12:49:38.047Z,16.64
2023-05-09T12:52:13.171Z,16.69
2023-05-09T12:54:46.324Z,16.96
2023-05-09T12:57:24.612Z,17.16
2023-05-09T13:00:00.372Z,17.19
2023-05-09T13:02:42.354Z,17.21
2023-05-09T13:05:18.156Z,17.16
2023-05-09T13:07:52.714Z,17.04
2023-05-09T13:10:31.003Z,16.89
2023-05-09T13:13:04.686Z,16.78
2023-05-09T13:15:36.234Z,16.66
2023-05-09T13:18:07.956Z,16.51
2023-05-09T13:20:39.573Z,16.37
2023-05-09T13:23:11.433Z,16.29
2023-05-09T13:25:43.200Z,16.29
2023-05-09T13:28:15.475Z,16.32
2023-05-09T13:30:48.308Z,16.34
2023-05-09T13:35:54.355Z,16.29
2023-05-09T13:38:26.265Z,16.29
2023-05-09T13:40:58.688Z,16.28
2023-05-09T13:43:30.672Z,16.29
2023-05-09T13:46:03.294Z,16.29
2023-05-09T13:48:35.779Z,16.27
2023-05-09T13:51:08.104Z,16.26
2023-05-09T13:53:40.106Z,16.22
2023-05-09T13:56:11.940Z,16.16
2023-05-09T13:58:43.641Z,16.16
2023-05-09T14:01:16.289Z,16.27
2023-05-09T14:06:33.436Z,16.46
2023-05-09T14:09:05.168Z,16.44
2023-05-09T14:11:37.359Z,16.45
2023-05-09T14:14:09.163Z,16.37
2023-05-09T14:16:40.890Z,16.28
2023-05-09T14:19:12.741Z,16.30
2023-05-09T14:21:45.146Z,16.37
2023-05-09T14:24:16.915Z,16.46
2023-05-09T14:26:48.998Z,16.60
2023-05-09T14:29:21.576Z,16.68
2023-05-09T14:31:53.282Z,16.73
2023-05-09T14:34:25.355Z,16.72
2023-05-09T14:36:57.835Z,16.62
2023-05-09T14:39:29.417Z,16.51
2023-05-09T14:42:01.178Z,16.41
2023-05-09T14:44:33.588Z,16.13
2023-05-09T14:47:05.424Z,15.88
2023-05-09T14:49:39.585Z,15.76
2023-05-09T14:52:11.929Z,15.68
2023-05-09T14:54:43.551Z,15.64
2023-05-09T14:57:15.298Z,15.59
2023-05-09T14:59:47.128Z,15.50
2023-05-09T15:02:18.846Z,15.45
2023-05-09T15:04:51.930Z,15.43
2023-05-09T15:07:24.068Z,15.42
2023-05-09T15:09:55.934Z,15.41
2023-05-09T15:15:20.274Z,15.34
2023-05-09T15:17:52.971Z,15.25
2023-05-09T15:20:25.185Z,15.21
2023-05-09T15:23:09.840Z,15.15
2023-05-09T15:25:42.928Z,15.04
2023-05-09T15:28:14.756Z,14.95
2023-05-09T15:30:46.574Z,14.88
2023-05-09T15:33:18.791Z,14.79
2023-05-09T15:35:50.428Z,14.75
2023-05-09T15:38:22.012Z,14.71
2023-05-09T15:40:53.693Z,14.68
2023-05-09T15:43:25.346Z,14.65
2023-05-09T15:45:57.263Z,14.63
2023-05-09T15:48:28.965Z,14.65
2023-05-09T15:51:02.707Z,14.61
2023-05-09T15:53:34.917Z,14.60
2023-05-09T15:56:07.908Z,14.55
2023-05-09T15:58:40.543Z,14.53
2023-05-09T16:01:13.903Z,14.54
2023-05-09T16:03:45.962Z,14.51
2023-05-09T16:06:17.916Z,14.51
2023-05-09T16:08:50.326Z,14.52
2023-05-09T16:11:23.582Z,14.54
2023-05-09T16:13:55.356Z,14.54
2023-05-09T16:16:27.024Z,14.54
2023-05-09T16:18:58.780Z,14.55
2023-05-09T16:21:32.234Z,14.51
2023-05-09T16:24:05.102Z,14.49
2023-05-09T16:26:36.823Z,14.48
2023-05-09T16:29:08.777Z,14.42
2023-05-09T16:31:42.351Z,14.33
2023-05-09T16:34:14.114Z,14.23
2023-05-09T16:36:48.224Z,14.14
2023-05-09T16:39:19.821Z,14.06
2023-05-09T16:41:51.523Z,14.01
2023-05-09T16:44:23.249Z,13.96
2023-05-09T16:46:54.935Z,13.91
2023-05-09T16:49:26.677Z,13.84
2023-05-09T16:51:59.456Z,13.77
2023-05-09T16:54:31.810Z,13.70
2023-05-09T16:57:04.509Z,13.66
2023-05-09T16:59:37.437Z,13.60
2023-05-09T17:02:10.687Z,13.54
2023-05-09T17:04:42.725Z,13.45
2023-05-09T17:07:15.512Z,13.37
2023-05-09T17:09:48.650Z,13.31
2023-05-09T17:12:20.286Z,13.24
2023-05-09T17:14:52.104Z,13.16
2023-05-09T17:17:23.685Z,13.08
2023-05-09T17:19:55.960Z,13.01
2023-05-09T17:22:27.922Z,12.97
2023-05-09T17:24:59.497Z,12.90
2023-05-09T17:27:31.809Z,12.82
2023-05-09T17:30:04.294Z,12.73
2023-05-09T17:32:36.811Z,12.68
2023-05-09T17:35:09.365Z,12.60
2023-05-09T17:37:41.701Z,12.55
2023-05-09T17:40:13.725Z,12.48
2023-05-09T17:42:45.814Z,12.43
2023-05-09T17:45:17.489Z,12.37
2023-05-09T17:47:49.901Z,12.31
2023-05-09T17:50:21.961Z,12.26
2023-05-09T17:52:55.188Z,12.23
2023-05-09T17:55:27.244Z,12.20
2023-05-09T17:57:58.849Z,12.17
2023-05-09T18:00:31.441Z,12.12
2023-05-09T18:03:04.006Z,12.10
2023-05-09T18:05:36.060Z,12.08
2023-05-09T18:08:08.277Z,12.02
2023-05-09T18:10:41.273Z,11.98
2023-05-09T18:13:14.150Z,11.94
2023-05-09T18:15:46.005Z,11.93
2023-05-09T18:18:17.673Z,11.89
2023-05-09T18:20:49.385Z,11.84
2023-05-09T18:23:22.286Z,11.81
2023-05-09T18:25:56.411Z,11.76
2023-05-09T18:28:29.237Z,11.69
2023-05-09T18:31:01.910Z,11.64
2023-05-09T18:33:38.282Z,11.59
2023-05-09T18:36:11.621Z,11.54
2023-05-09T18:38:44.782Z,11.49
2023-05-09T18:41:19.612Z,11.43
2023-05-09T18:43:51.533Z,11.40
2023-05-09T18:46:23.882Z,11.34
2023-05-09T18:48:56.513Z,11.28
2023-05-09T18:51:28.451Z,11.25
2023-05-09T18:54:00.249Z,11.19
2023-05-09T18:56:34.729Z,11.15
2023-05-09T18:59:09.132Z,11.07
2023-05-09T19:01:42.992Z,10.99
2023-05-09T19:04:16.971Z,10.93
2023-05-09T19:06:49.002Z,10.88
2023-05-09T19:09:21.779Z,10.81
2023-05-09T19:11:54.072Z,10.77
2023-05-09T19:14:27.035Z,10.72
2023-05-09T19:16:59.932Z,10.70
2023-05-09T19:19:32.514Z,10.68
2023-05-09T19:22:05.285Z,10.65
2023-05-09T19:24:39.763Z,10.63
2023-05-09T19:27:12.008Z,10.58
2023-05-09T19:29:44.488Z,10.54
2023-05-09T19:32:16.129Z,10.52
2023-05-09T19:34:47.872Z,10.50
2023-05-09T19:37:19.585Z,10.44
2023-05-09T19:39:51.484Z,10.38
2023-05-09T19:42:23.795Z,10.32
2023-05-09T19:44:55.630Z,10.27
2023-05-09T19:47:28.334Z,10.20
2023-05-09T19:50:02.185Z,10.14
2023-05-09T19:52:36.371Z,10.10
2023-05-09T19:55:09.019Z,10.05
2023-05-09T19:57:40.915Z,9.99
2023-05-09T20:00:13.853Z,9.96
2023-05-09T20:02:47.107Z,9.91
2023-05-09T20:05:18.901Z,9.90
2023-05-09T20:07:50.719Z,9.85
2023-05-09T20:10:23.042Z,9.85
2023-05-09T20:12:56.871Z,9.84
2023-05-09T20:15:29.205Z,9.80
2023-05-09T20:18:02.778Z,9.77
2023-05-09T20:20:35.141Z,9.74
2023-05-09T20:23:07.225Z,9.71
2023-05-09T20:25:38.830Z,9.69
2023-05-09T20:28:12.342Z,9.65
2023-05-09T20:30:44.043Z,9.63
2023-05-09T20:33:16.574Z,9.59
2023-05-09T20:35:49.220Z,9.56
2023-05-09T20:38:21.354Z,9.53
2023-05-09T20:40:53.097Z,9.51
2023-05-09T20:43:25.023Z,9.51
2023-05-09T20:45:57.060Z,9.50
2023-05-09T20:48:29.722Z,9.48
2023-05-09T20:51:01.246Z,9.45
2023-05-09T20:53:34.916Z,9.43
2023-05-09T20:56:06.762Z,9.41
2023-05-09T20:58:38.563Z,9.39
2023-05-09T21:01:10.426Z,9.37
2023-05-09T21:03:42.096Z,9.33
2023-05-09T21:06:13.817Z,9.32
2023-05-09T21:08:45.916Z,9.31
2023-05-09T21:11:18.751Z,9.30
2023-05-09T21:13:50.819Z,9.28
2023-05-09T21:16:23.140Z,9.25
2023-05-09T21:18:54.892Z,9.23
2023-05-09T21:21:26.735Z,9.21
2023-05-09T21:23:58.858Z,9.19
2023-05-09T21:26:30.716Z,9.16
2023-05-09T21:29:02.557Z,9.17
2023-05-09T21:31:34.511Z,9.17
2023-05-09T21:34:12.614Z,9.17
2023-05-09T21:36:44.238Z,9.16
2023-05-09T21:39:16.025Z,9.14
2023-05-09T21:41:47.733Z,9.12
2023-05-09T21:44:19.839Z,9.09
2023-05-09T21:46:51.573Z,9.08
2023-05-09T21:49:23.168Z,9.07
2023-05-09T21:51:54.700Z,9.05
2023-05-09T21:54:26.357Z,9.03
2023-05-09T21:56:57.989Z,9.01
2023-05-09T21:59:29.638Z,8.99
2023-05-09T22:02:01.680Z,8.98
2023-05-09T22:04:33.688Z,8.96
2023-05-09T22:07:05.294Z,8.94
2023-05-09T22:09:37.390Z,8.93
2023-05-09T22:12:09.421Z,8.93
2023-05-09T22:14:48.891Z,8.93
2023-05-09T22:17:14.783Z,8.94
2023-05-09T22:19:46.514Z,8.94
2023-05-09T22:22:18.083Z,8.92
2023-05-09T22:24:49.912Z,8.90
2023-05-09T22:27:21.477Z,8.87
2023-05-09T22:29:53.911Z,8.86
2023-05-09T22:32:25.501Z,8.84
2023-05-09T22:34:59.417Z,8.80
2023-05-09T22:37:31.175Z,8.77
2023-05-09T22:40:02.817Z,8.76
2023-05-09T22:42:34.930Z,8.74
2023-05-09T22:45:07.396Z,8.75
2023-05-09T22:47:39.568Z,8.74
2023-05-09T22:50:11.599Z,8.73
2023-05-09T22:52:43.353Z,8.75
2023-05-09T22:55:15.046Z,8.82
2023-05-09T22:57:47.473Z,8.85
2023-05-09T23:00:19.263Z,8.86
2023-05-09T23:02:51.115Z,8.85
2023-05-09T23:05:22.938Z,8.84
2023-05-09T23:07:54.864Z,8.84
2023-05-09T23:10:26.431Z,8.87
2023-05-09T23:12:58.030Z,8.89
2023-05-09T23:15:29.951Z,8.88
2023-05-09T23:18:01.788Z,8.90
2023-05-09T23:20:33.790Z,8.94
2023-05-09T23:23:06.176Z,8.94
2023-05-09T23:25:39.089Z,8.93
2023-05-09T23:28:10.921Z,8.92
2023-05-09T23:30:42.920Z,8.92
2023-05-09T23:33:14.529Z,8.92
2023-05-09T23:35:46.150Z,8.92
2023-05-09T23:38:17.992Z,8.93
2023-05-09T23:43:33.592Z,8.99
2023-05-09T23:46:05.503Z,9.00
2023-05-09T23:48:37.826Z,9.01
2023-05-09T23:51:09.541Z,9.02
2023-05-09T23:53:41.227Z,9.04
2023-05-09T23:56:12.809Z,9.04
2023-05-09T23:58:44.718Z,9.04
